sensor_id;sensor_type;location;lat;lon;timestamp;P1;durP1;ratioP1;P2;durP2;ratioP2
26540;SDS011;14206;50.202;10.948;2024-02-21T00:00:33;8.95;;;4.00;;
26540;SDS011;14206;50.202;10.948;2024-02-21T00:03:01;11.50;;;4.63;;
26540;SDS011;14206;50.202;10.948;2024-02-21T00:05:28;9.65;;;4.32;;
26540;SDS011;14206;50.202;10.948;2024-02-21T00:07:55;10.85;;;4.13;;
26540;SDS011;14206;50.202;10.948;2024-02-21T00:10:24;10.82;;;4.47;;
26540;SDS011;14206;50.202;10.948;2024-02-21T00:12:51;10.52;;;4.68;;
26540;SDS011;14206;50.202;10.948;2024-02-21T00:15:18;12.35;;;4.63;;
26540;SDS011;14206;50.202;10.948;2024-02-21T00:17:45;9.13;;;4.40;;
26540;SDS011;14206;50.202;10.948;2024-02-21T00:20:12;8.75;;;4.13;;
26540;SDS011;14206;50.202;10.948;2024-02-21T00:22:39;5.95;;;3.70;;
26540;SDS011;14206;50.202;10.948;2024-02-21T00:25:06;9.85;;;4.47;;
26540;SDS011;14206;50.202;10.948;2024-02-21T00:27:34;9.10;;;4.30;;
26540;SDS011;14206;50.202;10.948;2024-02-21T00:30:01;12.68;;;3.95;;
26540;SDS011;14206;50.202;10.948;2024-02-21T00:32:29;12.13;;;4.57;;
26540;SDS011;14206;50.202;10.948;2024-02-21T00:34:56;9.45;;;4.35;;
26540;SDS011;14206;50.202;10.948;2024-02-21T00:37:23;9.48;;;4.70;;
26540;SDS011;14206;50.202;10.948;2024-02-21T00:39:50;10.02;;;4.45;;
26540;SDS011;14206;50.202;10.948;2024-02-21T00:42:17;10.57;;;4.68;;
26540;SDS011;14206;50.202;10.948;2024-02-21T00:44:44;8.52;;;4.18;;
26540;SDS011;14206;50.202;10.948;2024-02-21T00:47:11;10.90;;;4.53;;
26540;SDS011;14206;50.202;10.948;2024-02-21T00:49:38;10.48;;;4.50;;
26540;SDS011;14206;50.202;10.948;2024-02-21T00:52:05;7.03;;;3.50;;
26540;SDS011;14206;50.202;10.948;2024-02-21T00:54:32;10.63;;;4.25;;
26540;SDS011;14206;50.202;10.948;2024-02-21T00:57:15;11.15;;;4.35;;
26540;SDS011;14206;50.202;10.948;2024-02-21T00:59:42;10.65;;;4.30;;
26540;SDS011;14206;50.202;10.948;2024-02-21T01:02:09;10.52;;;4.43;;
26540;SDS011;14206;50.202;10.948;2024-02-21T01:04:36;7.90;;;3.83;;
26540;SDS011;14206;50.202;10.948;2024-02-21T01:07:03;9.60;;;3.88;;
26540;SDS011;14206;50.202;10.948;2024-02-21T01:09:30;6.57;;;3.50;;
26540;SDS011;14206;50.202;10.948;2024-02-21T01:12:00;6.43;;;3.60;;
26540;SDS011;14206;50.202;10.948;2024-02-21T01:14:27;5.45;;;3.40;;
26540;SDS011;14206;50.202;10.948;2024-02-21T01:16:54;6.90;;;3.42;;
26540;SDS011;14206;50.202;10.948;2024-02-21T01:19:24;6.60;;;3.42;;
26540;SDS011;14206;50.202;10.948;2024-02-21T01:21:52;5.80;;;3.00;;
26540;SDS011;14206;50.202;10.948;2024-02-21T01:24:19;6.03;;;3.33;;
26540;SDS011;14206;50.202;10.948;2024-02-21T01:26:45;6.78;;;3.28;;
26540;SDS011;14206;50.202;10.948;2024-02-21T01:29:13;5.63;;;2.70;;
26540;SDS011;14206;50.202;10.948;2024-02-21T01:31:40;6.57;;;2.63;;
26540;SDS011;14206;50.202;10.948;2024-02-21T01:34:07;5.38;;;2.78;;
26540;SDS011;14206;50.202;10.948;2024-02-21T01:36:36;7.30;;;3.40;;
26540;SDS011;14206;50.202;10.948;2024-02-21T01:39:02;9.23;;;3.70;;
26540;SDS011;14206;50.202;10.948;2024-02-21T01:41:30;6.57;;;3.22;;
26540;SDS011;14206;50.202;10.948;2024-02-21T01:43:57;9.27;;;3.80;;
26540;SDS011;14206;50.202;10.948;2024-02-21T01:46:24;6.45;;;3.50;;
26540;SDS011;14206;50.202;10.948;2024-02-21T01:48:56;10.80;;;3.22;;
26540;SDS011;14206;50.202;10.948;2024-02-21T01:51:24;9.02;;;3.50;;
26540;SDS011;14206;50.202;10.948;2024-02-21T01:53:51;8.88;;;3.70;;
26540;SDS011;14206;50.202;10.948;2024-02-21T01:56:21;9.00;;;4.00;;
26540;SDS011;14206;50.202;10.948;2024-02-21T01:58:48;12.07;;;4.55;;
26540;SDS011;14206;50.202;10.948;2024-02-21T02:01:17;6.60;;;3.60;;
26540;SDS011;14206;50.202;10.948;2024-02-21T02:03:48;8.35;;;3.72;;
26540;SDS011;14206;50.202;10.948;2024-02-21T02:06:16;8.13;;;3.15;;
26540;SDS011;14206;50.202;10.948;2024-02-21T02:08:43;8.27;;;3.63;;
26540;SDS011;14206;50.202;10.948;2024-02-21T02:11:10;6.68;;;3.55;;
26540;SDS011;14206;50.202;10.948;2024-02-21T02:13:39;6.80;;;3.83;;
26540;SDS011;14206;50.202;10.948;2024-02-21T02:16:06;7.28;;;3.33;;
26540;SDS011;14206;50.202;10.948;2024-02-21T02:18:33;7.28;;;3.53;;
26540;SDS011;14206;50.202;10.948;2024-02-21T02:21:00;6.30;;;3.38;;
26540;SDS011;14206;50.202;10.948;2024-02-21T02:23:31;6.18;;;3.03;;
26540;SDS011;14206;50.202;10.948;2024-02-21T02:25:58;7.25;;;3.80;;
26540;SDS011;14206;50.202;10.948;2024-02-21T02:28:27;9.52;;;4.45;;
26540;SDS011;14206;50.202;10.948;2024-02-21T02:31:02;9.15;;;4.00;;
26540;SDS011;14206;50.202;10.948;2024-02-21T02:33:29;6.05;;;2.88;;
26540;SDS011;14206;50.202;10.948;2024-02-21T02:35:56;8.98;;;3.90;;
26540;SDS011;14206;50.202;10.948;2024-02-21T02:38:25;7.95;;;3.67;;
26540;SDS011;14206;50.202;10.948;2024-02-21T02:40:52;8.00;;;3.97;;
26540;SDS011;14206;50.202;10.948;2024-02-21T02:43:19;10.15;;;3.90;;
26540;SDS011;14206;50.202;10.948;2024-02-21T02:45:45;7.57;;;3.58;;
26540;SDS011;14206;50.202;10.948;2024-02-21T02:48:12;10.32;;;4.18;;
26540;SDS011;14206;50.202;10.948;2024-02-21T02:50:39;9.65;;;4.32;;
26540;SDS011;14206;50.202;10.948;2024-02-21T02:53:06;8.98;;;4.30;;
26540;SDS011;14206;50.202;10.948;2024-02-21T02:55:33;8.00;;;3.67;;
26540;SDS011;14206;50.202;10.948;2024-02-21T02:58:01;10.45;;;4.15;;
26540;SDS011;14206;50.202;10.948;2024-02-21T03:00:28;8.90;;;3.50;;
26540;SDS011;14206;50.202;10.948;2024-02-21T03:02:56;9.52;;;4.13;;
26540;SDS011;14206;50.202;10.948;2024-02-21T03:05:22;9.57;;;4.47;;
26540;SDS011;14206;50.202;10.948;2024-02-21T03:07:50;6.60;;;3.63;;
26540;SDS011;14206;50.202;10.948;2024-02-21T03:10:17;11.95;;;3.95;;
26540;SDS011;14206;50.202;10.948;2024-02-21T03:12:45;8.80;;;4.32;;
26540;SDS011;14206;50.202;10.948;2024-02-21T03:15:12;8.82;;;3.83;;
26540;SDS011;14206;50.202;10.948;2024-02-21T03:17:40;10.15;;;4.20;;
26540;SDS011;14206;50.202;10.948;2024-02-21T03:20:07;10.07;;;3.95;;
26540;SDS011;14206;50.202;10.948;2024-02-21T03:22:37;14.80;;;5.00;;
26540;SDS011;14206;50.202;10.948;2024-02-21T03:25:04;11.10;;;4.93;;
26540;SDS011;14206;50.202;10.948;2024-02-21T03:27:33;12.00;;;5.18;;
26540;SDS011;14206;50.202;10.948;2024-02-21T03:29:59;12.10;;;4.45;;
26540;SDS011;14206;50.202;10.948;2024-02-21T03:32:27;11.82;;;4.80;;
26540;SDS011;14206;50.202;10.948;2024-02-21T03:34:55;10.73;;;4.25;;
26540;SDS011;14206;50.202;10.948;2024-02-21T03:37:22;15.23;;;5.20;;
26540;SDS011;14206;50.202;10.948;2024-02-21T03:39:49;10.63;;;4.78;;
26540;SDS011;14206;50.202;10.948;2024-02-21T03:42:16;8.48;;;4.32;;
26540;SDS011;14206;50.202;10.948;2024-02-21T03:44:43;10.10;;;4.63;;
26540;SDS011;14206;50.202;10.948;2024-02-21T03:47:10;10.18;;;4.78;;
26540;SDS011;14206;50.202;10.948;2024-02-21T03:49:38;10.48;;;4.88;;
26540;SDS011;14206;50.202;10.948;2024-02-21T03:52:05;10.77;;;4.63;;
26540;SDS011;14206;50.202;10.948;2024-02-21T03:54:32;9.23;;;4.22;;
26540;SDS011;14206;50.202;10.948;2024-02-21T03:56:59;8.10;;;4.30;;
26540;SDS011;14206;50.202;10.948;2024-02-21T03:59:26;12.63;;;5.38;;
26540;SDS011;14206;50.202;10.948;2024-02-21T04:01:53;12.10;;;4.88;;
26540;SDS011;14206;50.202;10.948;2024-02-21T04:04:20;9.27;;;4.22;;
26540;SDS011;14206;50.202;10.948;2024-02-21T04:06:47;14.13;;;5.18;;
26540;SDS011;14206;50.202;10.948;2024-02-21T04:09:15;11.75;;;4.95;;
26540;SDS011;14206;50.202;10.948;2024-02-21T04:11:42;14.43;;;5.00;;
26540;SDS011;14206;50.202;10.948;2024-02-21T04:14:09;9.90;;;5.00;;
26540;SDS011;14206;50.202;10.948;2024-02-21T04:16:38;10.60;;;4.90;;
26540;SDS011;14206;50.202;10.948;2024-02-21T04:19:06;11.15;;;4.78;;
26540;SDS011;14206;50.202;10.948;2024-02-21T04:21:34;9.40;;;4.75;;
26540;SDS011;14206;50.202;10.948;2024-02-21T04:24:01;12.75;;;5.05;;
26540;SDS011;14206;50.202;10.948;2024-02-21T04:26:30;15.00;;;5.30;;
26540;SDS011;14206;50.202;10.948;2024-02-21T04:28:57;12.63;;;5.10;;
26540;SDS011;14206;50.202;10.948;2024-02-21T04:31:24;12.32;;;5.35;;
26540;SDS011;14206;50.202;10.948;2024-02-21T04:33:51;11.35;;;5.28;;
26540;SDS011;14206;50.202;10.948;2024-02-21T04:36:18;12.13;;;5.65;;
26540;SDS011;14206;50.202;10.948;2024-02-21T04:38:45;11.18;;;5.55;;
26540;SDS011;14206;50.202;10.948;2024-02-21T04:41:12;14.00;;;5.60;;
26540;SDS011;14206;50.202;10.948;2024-02-21T04:43:39;11.23;;;5.22;;
26540;SDS011;14206;50.202;10.948;2024-02-21T04:46:06;13.02;;;5.65;;
26540;SDS011;14206;50.202;10.948;2024-02-21T04:48:32;11.75;;;5.72;;
26540;SDS011;14206;50.202;10.948;2024-02-21T04:50:59;14.02;;;5.30;;
26540;SDS011;14206;50.202;10.948;2024-02-21T04:53:26;10.43;;;5.15;;
26540;SDS011;14206;50.202;10.948;2024-02-21T04:55:53;9.18;;;4.75;;
26540;SDS011;14206;50.202;10.948;2024-02-21T04:58:20;10.57;;;5.07;;
26540;SDS011;14206;50.202;10.948;2024-02-21T05:00:47;9.93;;;4.88;;
26540;SDS011;14206;50.202;10.948;2024-02-21T05:03:14;9.73;;;5.15;;
26540;SDS011;14206;50.202;10.948;2024-02-21T05:05:40;10.70;;;4.97;;
26540;SDS011;14206;50.202;10.948;2024-02-21T05:08:08;13.48;;;5.97;;
26540;SDS011;14206;50.202;10.948;2024-02-21T05:10:36;10.48;;;5.13;;
26540;SDS011;14206;50.202;10.948;2024-02-21T05:13:03;12.57;;;6.28;;
26540;SDS011;14206;50.202;10.948;2024-02-21T05:15:31;10.68;;;5.10;;
26540;SDS011;14206;50.202;10.948;2024-02-21T05:17:58;14.95;;;6.43;;
26540;SDS011;14206;50.202;10.948;2024-02-21T05:20:26;13.38;;;5.88;;
26540;SDS011;14206;50.202;10.948;2024-02-21T05:22:53;11.27;;;5.93;;
26540;SDS011;14206;50.202;10.948;2024-02-21T05:25:19;12.73;;;5.97;;
26540;SDS011;14206;50.202;10.948;2024-02-21T05:27:46;13.95;;;5.93;;
26540;SDS011;14206;50.202;10.948;2024-02-21T05:30:14;13.88;;;6.20;;
26540;SDS011;14206;50.202;10.948;2024-02-21T05:32:42;13.82;;;6.40;;
26540;SDS011;14206;50.202;10.948;2024-02-21T05:35:09;13.50;;;6.15;;
26540;SDS011;14206;50.202;10.948;2024-02-21T05:37:36;13.38;;;6.95;;
26540;SDS011;14206;50.202;10.948;2024-02-21T05:40:03;12.15;;;5.50;;
26540;SDS011;14206;50.202;10.948;2024-02-21T05:42:30;11.85;;;5.88;;
26540;SDS011;14206;50.202;10.948;2024-02-21T05:44:57;11.65;;;5.38;;
26540;SDS011;14206;50.202;10.948;2024-02-21T05:47:23;12.30;;;5.78;;
26540;SDS011;14206;50.202;10.948;2024-02-21T05:49:50;11.73;;;5.20;;
26540;SDS011;14206;50.202;10.948;2024-02-21T05:52:20;11.90;;;5.63;;
26540;SDS011;14206;50.202;10.948;2024-02-21T05:54:47;11.07;;;5.22;;
26540;SDS011;14206;50.202;10.948;2024-02-21T05:57:17;10.32;;;4.55;;
26540;SDS011;14206;50.202;10.948;2024-02-21T05:59:44;12.05;;;5.20;;
26540;SDS011;14206;50.202;10.948;2024-02-21T06:02:11;7.22;;;4.28;;
26540;SDS011;14206;50.202;10.948;2024-02-21T06:04:38;6.18;;;3.65;;
26540;SDS011;14206;50.202;10.948;2024-02-21T06:07:06;9.52;;;4.68;;
26540;SDS011;14206;50.202;10.948;2024-02-21T06:09:32;8.60;;;4.25;;
26540;SDS011;14206;50.202;10.948;2024-02-21T06:11:59;10.55;;;4.70;;
26540;SDS011;14206;50.202;10.948;2024-02-21T06:14:26;8.18;;;4.05;;
26540;SDS011;14206;50.202;10.948;2024-02-21T06:16:53;12.50;;;5.53;;
26540;SDS011;14206;50.202;10.948;2024-02-21T06:19:20;11.15;;;5.32;;
26540;SDS011;14206;50.202;10.948;2024-02-21T06:21:47;11.18;;;4.90;;
26540;SDS011;14206;50.202;10.948;2024-02-21T06:24:14;12.32;;;5.38;;
26540;SDS011;14206;50.202;10.948;2024-02-21T06:26:41;11.13;;;5.07;;
26540;SDS011;14206;50.202;10.948;2024-02-21T06:29:08;14.00;;;5.60;;
26540;SDS011;14206;50.202;10.948;2024-02-21T06:31:35;12.82;;;5.57;;
26540;SDS011;14206;50.202;10.948;2024-02-21T06:34:02;11.20;;;5.40;;
26540;SDS011;14206;50.202;10.948;2024-02-21T06:36:31;9.82;;;4.85;;
26540;SDS011;14206;50.202;10.948;2024-02-21T06:38:58;10.68;;;5.82;;
26540;SDS011;14206;50.202;10.948;2024-02-21T06:41:26;12.07;;;5.40;;
26540;SDS011;14206;50.202;10.948;2024-02-21T06:43:52;12.05;;;4.97;;
26540;SDS011;14206;50.202;10.948;2024-02-21T06:46:25;11.52;;;5.47;;
26540;SDS011;14206;50.202;10.948;2024-02-21T06:48:55;11.07;;;5.50;;
26540;SDS011;14206;50.202;10.948;2024-02-21T06:51:24;10.18;;;5.68;;
26540;SDS011;14206;50.202;10.948;2024-02-21T06:53:54;12.93;;;5.40;;
26540;SDS011;14206;50.202;10.948;2024-02-21T06:56:24;15.15;;;7.07;;
26540;SDS011;14206;50.202;10.948;2024-02-21T06:58:55;16.20;;;6.88;;
26540;SDS011;14206;50.202;10.948;2024-02-21T07:01:23;13.68;;;6.28;;
26540;SDS011;14206;50.202;10.948;2024-02-21T07:03:50;15.20;;;6.43;;
26540;SDS011;14206;50.202;10.948;2024-02-21T07:06:17;9.82;;;5.75;;
26540;SDS011;14206;50.202;10.948;2024-02-21T07:08:44;18.13;;;6.43;;
26540;SDS011;14206;50.202;10.948;2024-02-21T07:11:11;12.88;;;6.00;;
26540;SDS011;14206;50.202;10.948;2024-02-21T07:13:38;12.32;;;5.50;;
26540;SDS011;14206;50.202;10.948;2024-02-21T07:16:06;16.20;;;6.07;;
26540;SDS011;14206;50.202;10.948;2024-02-21T07:18:33;9.32;;;5.43;;
26540;SDS011;14206;50.202;10.948;2024-02-21T07:21:00;12.98;;;6.40;;
26540;SDS011;14206;50.202;10.948;2024-02-21T07:23:27;15.50;;;6.38;;
26540;SDS011;14206;50.202;10.948;2024-02-21T07:25:54;15.32;;;6.63;;
26540;SDS011;14206;50.202;10.948;2024-02-21T07:28:21;11.80;;;5.65;;
26540;SDS011;14206;50.202;10.948;2024-02-21T07:30:48;10.82;;;5.65;;
26540;SDS011;14206;50.202;10.948;2024-02-21T07:33:15;11.05;;;5.93;;
26540;SDS011;14206;50.202;10.948;2024-02-21T07:35:42;14.00;;;6.53;;
26540;SDS011;14206;50.202;10.948;2024-02-21T07:38:11;14.90;;;6.35;;
26540;SDS011;14206;50.202;10.948;2024-02-21T07:40:39;9.82;;;5.82;;
26540;SDS011;14206;50.202;10.948;2024-02-21T07:43:06;9.27;;;4.90;;
26540;SDS011;14206;50.202;10.948;2024-02-21T07:45:33;14.30;;;5.95;;
26540;SDS011;14206;50.202;10.948;2024-02-21T07:48:00;11.02;;;5.57;;
26540;SDS011;14206;50.202;10.948;2024-02-21T07:50:27;15.48;;;6.63;;
26540;SDS011;14206;50.202;10.948;2024-02-21T07:52:54;15.90;;;6.40;;
26540;SDS011;14206;50.202;10.948;2024-02-21T07:55:21;10.70;;;5.72;;
26540;SDS011;14206;50.202;10.948;2024-02-21T07:57:48;11.45;;;5.50;;
26540;SDS011;14206;50.202;10.948;2024-02-21T08:00:16;17.67;;;5.90;;
26540;SDS011;14206;50.202;10.948;2024-02-21T08:02:48;11.43;;;5.95;;
26540;SDS011;14206;50.202;10.948;2024-02-21T08:05:15;12.05;;;5.72;;
26540;SDS011;14206;50.202;10.948;2024-02-21T08:07:42;11.63;;;6.80;;
26540;SDS011;14206;50.202;10.948;2024-02-21T08:10:09;14.38;;;7.20;;
26540;SDS011;14206;50.202;10.948;2024-02-21T08:12:36;12.35;;;6.00;;
26540;SDS011;14206;50.202;10.948;2024-02-21T08:15:04;9.98;;;6.10;;
26540;SDS011;14206;50.202;10.948;2024-02-21T08:17:31;17.42;;;7.15;;
26540;SDS011;14206;50.202;10.948;2024-02-21T08:19:58;15.20;;;7.40;;
26540;SDS011;14206;50.202;10.948;2024-02-21T08:22:25;9.88;;;5.75;;
26540;SDS011;14206;50.202;10.948;2024-02-21T08:24:53;13.02;;;7.05;;
26540;SDS011;14206;50.202;10.948;2024-02-21T08:27:20;10.40;;;6.55;;
26540;SDS011;14206;50.202;10.948;2024-02-21T08:29:47;13.35;;;7.57;;
26540;SDS011;14206;50.202;10.948;2024-02-21T08:32:14;14.55;;;7.60;;
26540;SDS011;14206;50.202;10.948;2024-02-21T08:34:40;17.17;;;9.10;;
26540;SDS011;14206;50.202;10.948;2024-02-21T08:37:07;17.58;;;10.10;;
26540;SDS011;14206;50.202;10.948;2024-02-21T08:39:37;18.00;;;10.18;;
26540;SDS011;14206;50.202;10.948;2024-02-21T08:42:04;20.38;;;10.68;;
26540;SDS011;14206;50.202;10.948;2024-02-21T08:44:31;17.90;;;9.60;;
26540;SDS011;14206;50.202;10.948;2024-02-21T08:46:58;16.15;;;9.00;;
26540;SDS011;14206;50.202;10.948;2024-02-21T08:49:26;19.63;;;9.35;;
26540;SDS011;14206;50.202;10.948;2024-02-21T08:52:00;13.73;;;7.78;;
26540;SDS011;14206;50.202;10.948;2024-02-21T08:54:27;15.57;;;7.72;;
26540;SDS011;14206;50.202;10.948;2024-02-21T08:56:54;14.90;;;7.28;;
26540;SDS011;14206;50.202;10.948;2024-02-21T08:59:21;15.38;;;7.50;;
26540;SDS011;14206;50.202;10.948;2024-02-21T09:01:48;17.48;;;8.45;;
26540;SDS011;14206;50.202;10.948;2024-02-21T09:04:15;13.73;;;7.95;;
26540;SDS011;14206;50.202;10.948;2024-02-21T09:06:42;17.85;;;8.65;;
26540;SDS011;14206;50.202;10.948;2024-02-21T09:09:10;16.80;;;8.40;;
26540;SDS011;14206;50.202;10.948;2024-02-21T09:11:37;15.32;;;7.72;;
26540;SDS011;14206;50.202;10.948;2024-02-21T09:14:04;13.27;;;6.50;;
26540;SDS011;14206;50.202;10.948;2024-02-21T09:16:31;13.48;;;5.65;;
26540;SDS011;14206;50.202;10.948;2024-02-21T09:18:59;10.30;;;5.82;;
26540;SDS011;14206;50.202;10.948;2024-02-21T09:21:27;12.70;;;5.45;;
26540;SDS011;14206;50.202;10.948;2024-02-21T09:23:54;11.75;;;5.18;;
26540;SDS011;14206;50.202;10.948;2024-02-21T09:26:25;8.27;;;4.70;;
26540;SDS011;14206;50.202;10.948;2024-02-21T09:28:52;10.65;;;5.00;;
26540;SDS011;14206;50.202;10.948;2024-02-21T09:31:19;12.02;;;4.97;;
26540;SDS011;14206;50.202;10.948;2024-02-21T09:33:46;10.10;;;4.43;;
26540;SDS011;14206;50.202;10.948;2024-02-21T09:36:14;9.35;;;4.00;;
26540;SDS011;14206;50.202;10.948;2024-02-21T09:38:41;9.77;;;4.40;;
26540;SDS011;14206;50.202;10.948;2024-02-21T09:41:11;10.68;;;4.13;;
26540;SDS011;14206;50.202;10.948;2024-02-21T09:43:49;7.95;;;4.15;;
26540;SDS011;14206;50.202;10.948;2024-02-21T09:46:21;9.25;;;4.60;;
26540;SDS011;14206;50.202;10.948;2024-02-21T09:51:44;11.13;;;4.90;;
26540;SDS011;14206;50.202;10.948;2024-02-21T09:54:14;11.10;;;4.75;;
26540;SDS011;14206;50.202;10.948;2024-02-21T09:56:44;10.63;;;5.07;;
26540;SDS011;14206;50.202;10.948;2024-02-21T09:59:16;13.82;;;5.63;;
26540;SDS011;14206;50.202;10.948;2024-02-21T10:01:43;10.05;;;5.55;;
26540;SDS011;14206;50.202;10.948;2024-02-21T10:04:11;8.32;;;4.40;;
26540;SDS011;14206;50.202;10.948;2024-02-21T10:06:38;9.07;;;3.88;;
26540;SDS011;14206;50.202;10.948;2024-02-21T10:09:06;8.15;;;3.55;;
26540;SDS011;14206;50.202;10.948;2024-02-21T10:11:33;6.90;;;3.38;;
26540;SDS011;14206;50.202;10.948;2024-02-21T10:14:04;10.10;;;3.38;;
26540;SDS011;14206;50.202;10.948;2024-02-21T10:16:32;7.97;;;3.20;;
26540;SDS011;14206;50.202;10.948;2024-02-21T10:19:00;11.40;;;3.85;;
26540;SDS011;14206;50.202;10.948;2024-02-21T10:21:27;9.57;;;3.95;;
26540;SDS011;14206;50.202;10.948;2024-02-21T10:23:54;9.48;;;4.32;;
26540;SDS011;14206;50.202;10.948;2024-02-21T10:26:21;6.57;;;2.70;;
26540;SDS011;14206;50.202;10.948;2024-02-21T10:28:49;5.75;;;3.05;;
26540;SDS011;14206;50.202;10.948;2024-02-21T10:31:22;7.65;;;3.08;;
26540;SDS011;14206;50.202;10.948;2024-02-21T10:34:02;7.75;;;3.70;;
26540;SDS011;14206;50.202;10.948;2024-02-21T10:36:33;8.93;;;3.03;;
26540;SDS011;14206;50.202;10.948;2024-02-21T10:39:00;6.88;;;2.97;;
26540;SDS011;14206;50.202;10.948;2024-02-21T10:41:27;6.15;;;2.60;;
26540;SDS011;14206;50.202;10.948;2024-02-21T10:43:56;7.32;;;3.08;;
26540;SDS011;14206;50.202;10.948;2024-02-21T10:46:24;8.15;;;3.10;;
26540;SDS011;14206;50.202;10.948;2024-02-21T10:48:57;8.40;;;3.33;;
26540;SDS011;14206;50.202;10.948;2024-02-21T10:51:45;8.18;;;3.35;;
26540;SDS011;14206;50.202;10.948;2024-02-21T10:56:57;7.97;;;2.80;;
26540;SDS011;14206;50.202;10.948;2024-02-21T10:59:26;7.07;;;2.88;;
26540;SDS011;14206;50.202;10.948;2024-02-21T11:01:56;9.98;;;3.22;;
26540;SDS011;14206;50.202;10.948;2024-02-21T11:04:25;9.10;;;3.10;;
26540;SDS011;14206;50.202;10.948;2024-02-21T11:06:53;7.10;;;2.90;;
26540;SDS011;14206;50.202;10.948;2024-02-21T11:09:28;8.10;;;2.65;;
26540;SDS011;14206;50.202;10.948;2024-02-21T11:12:02;7.25;;;2.85;;
26540;SDS011;14206;50.202;10.948;2024-02-21T11:14:30;8.32;;;3.10;;
26540;SDS011;14206;50.202;10.948;2024-02-21T11:17:18;8.68;;;3.30;;
26540;SDS011;14206;50.202;10.948;2024-02-21T11:19:53;10.55;;;3.17;;
26540;SDS011;14206;50.202;10.948;2024-02-21T11:22:20;8.43;;;3.47;;
26540;SDS011;14206;50.202;10.948;2024-02-21T11:24:49;6.72;;;2.95;;
26540;SDS011;14206;50.202;10.948;2024-02-21T11:27:19;5.53;;;2.67;;
26540;SDS011;14206;50.202;10.948;2024-02-21T11:29:48;9.63;;;3.30;;
26540;SDS011;14206;50.202;10.948;2024-02-21T11:32:18;6.53;;;2.67;;
26540;SDS011;14206;50.202;10.948;2024-02-21T11:34:56;7.63;;;2.97;;
26540;SDS011;14206;50.202;10.948;2024-02-21T11:37:33;8.65;;;3.15;;
26540;SDS011;14206;50.202;10.948;2024-02-21T11:40:05;6.45;;;3.00;;
26540;SDS011;14206;50.202;10.948;2024-02-21T11:42:38;9.43;;;3.10;;
26540;SDS011;14206;50.202;10.948;2024-02-21T11:45:06;7.82;;;3.00;;
26540;SDS011;14206;50.202;10.948;2024-02-21T11:47:35;6.18;;;3.05;;
26540;SDS011;14206;50.202;10.948;2024-02-21T11:50:09;5.93;;;2.72;;
26540;SDS011;14206;50.202;10.948;2024-02-21T11:52:36;6.13;;;2.60;;
26540;SDS011;14206;50.202;10.948;2024-02-21T11:55:04;7.75;;;2.70;;
26540;SDS011;14206;50.202;10.948;2024-02-21T11:57:34;6.00;;;2.72;;
26540;SDS011;14206;50.202;10.948;2024-02-21T12:00:25;6.75;;;3.22;;
26540;SDS011;14206;50.202;10.948;2024-02-21T12:02:52;7.03;;;2.97;;
26540;SDS011;14206;50.202;10.948;2024-02-21T12:05:19;8.27;;;3.05;;
26540;SDS011;14206;50.202;10.948;2024-02-21T12:07:46;5.72;;;2.97;;
26540;SDS011;14206;50.202;10.948;2024-02-21T12:10:13;12.45;;;3.03;;
26540;SDS011;14206;50.202;10.948;2024-02-21T12:12:41;8.15;;;2.75;;
26540;SDS011;14206;50.202;10.948;2024-02-21T12:15:08;5.80;;;2.67;;
26540;SDS011;14206;50.202;10.948;2024-02-21T12:17:35;7.53;;;3.10;;
26540;SDS011;14206;50.202;10.948;2024-02-21T12:20:03;6.93;;;2.80;;
26540;SDS011;14206;50.202;10.948;2024-02-21T12:22:38;6.32;;;2.83;;
26540;SDS011;14206;50.202;10.948;2024-02-21T12:25:18;5.50;;;2.70;;
26540;SDS011;14206;50.202;10.948;2024-02-21T12:27:49;7.20;;;2.70;;
26540;SDS011;14206;50.202;10.948;2024-02-21T12:30:16;7.88;;;2.80;;
26540;SDS011;14206;50.202;10.948;2024-02-21T12:32:43;6.57;;;2.80;;
26540;SDS011;14206;50.202;10.948;2024-02-21T12:35:10;8.48;;;3.13;;
26540;SDS011;14206;50.202;10.948;2024-02-21T12:37:37;6.43;;;2.60;;
26540;SDS011;14206;50.202;10.948;2024-02-21T12:40:06;8.30;;;2.40;;
26540;SDS011;14206;50.202;10.948;2024-02-21T12:42:33;5.82;;;2.92;;
26540;SDS011;14206;50.202;10.948;2024-02-21T12:45:02;4.93;;;2.35;;
26540;SDS011;14206;50.202;10.948;2024-02-21T12:47:30;4.55;;;2.60;;
26540;SDS011;14206;50.202;10.948;2024-02-21T12:49:57;6.63;;;2.47;;
26540;SDS011;14206;50.202;10.948;2024-02-21T12:52:24;6.82;;;2.83;;
26540;SDS011;14206;50.202;10.948;2024-02-21T12:54:51;6.32;;;2.53;;
26540;SDS011;14206;50.202;10.948;2024-02-21T12:57:18;7.68;;;2.70;;
26540;SDS011;14206;50.202;10.948;2024-02-21T12:59:45;5.68;;;2.15;;
26540;SDS011;14206;50.202;10.948;2024-02-21T13:02:12;5.45;;;2.70;;
26540;SDS011;14206;50.202;10.948;2024-02-21T13:04:39;6.10;;;2.47;;
26540;SDS011;14206;50.202;10.948;2024-02-21T13:07:07;4.35;;;2.20;;
26540;SDS011;14206;50.202;10.948;2024-02-21T13:09:34;4.50;;;2.20;;
26540;SDS011;14206;50.202;10.948;2024-02-21T13:12:02;6.07;;;2.33;;
26540;SDS011;14206;50.202;10.948;2024-02-21T13:14:29;6.10;;;2.40;;
26540;SDS011;14206;50.202;10.948;2024-02-21T13:16:56;6.20;;;2.55;;
26540;SDS011;14206;50.202;10.948;2024-02-21T13:19:23;6.75;;;2.58;;
26540;SDS011;14206;50.202;10.948;2024-02-21T13:21:50;6.68;;;2.35;;
26540;SDS011;14206;50.202;10.948;2024-02-21T13:24:17;6.03;;;2.20;;
26540;SDS011;14206;50.202;10.948;2024-02-21T13:26:44;7.63;;;2.67;;
26540;SDS011;14206;50.202;10.948;2024-02-21T13:29:11;6.35;;;2.53;;
26540;SDS011;14206;50.202;10.948;2024-02-21T13:31:38;6.25;;;2.35;;
26540;SDS011;14206;50.202;10.948;2024-02-21T13:34:05;6.68;;;2.58;;
26540;SDS011;14206;50.202;10.948;2024-02-21T13:36:38;5.47;;;2.30;;
26540;SDS011;14206;50.202;10.948;2024-02-21T13:39:04;5.22;;;2.40;;
26540;SDS011;14206;50.202;10.948;2024-02-21T13:41:31;8.82;;;2.33;;
26540;SDS011;14206;50.202;10.948;2024-02-21T13:43:59;7.13;;;2.25;;
26540;SDS011;14206;50.202;10.948;2024-02-21T13:46:27;3.60;;;1.90;;
26540;SDS011;14206;50.202;10.948;2024-02-21T13:48:54;6.78;;;2.50;;
26540;SDS011;14206;50.202;10.948;2024-02-21T13:51:33;6.22;;;1.95;;
26540;SDS011;14206;50.202;10.948;2024-02-21T13:54:04;6.68;;;2.17;;
26540;SDS011;14206;50.202;10.948;2024-02-21T13:56:31;4.47;;;1.90;;
26540;SDS011;14206;50.202;10.948;2024-02-21T13:58:58;5.15;;;1.92;;
26540;SDS011;14206;50.202;10.948;2024-02-21T14:01:28;6.18;;;2.40;;
26540;SDS011;14206;50.202;10.948;2024-02-21T14:03:55;5.63;;;2.53;;
26540;SDS011;14206;50.202;10.948;2024-02-21T14:06:22;5.32;;;2.20;;
26540;SDS011;14206;50.202;10.948;2024-02-21T14:08:49;5.35;;;2.28;;
26540;SDS011;14206;50.202;10.948;2024-02-21T14:11:16;4.55;;;2.22;;
26540;SDS011;14206;50.202;10.948;2024-02-21T14:13:43;6.07;;;2.15;;
26540;SDS011;14206;50.202;10.948;2024-02-21T14:16:11;7.70;;;2.22;;
26540;SDS011;14206;50.202;10.948;2024-02-21T14:18:42;6.28;;;2.50;;
26540;SDS011;14206;50.202;10.948;2024-02-21T14:21:10;8.43;;;1.92;;
26540;SDS011;14206;50.202;10.948;2024-02-21T14:23:37;5.00;;;1.67;;
26540;SDS011;14206;50.202;10.948;2024-02-21T14:26:05;4.45;;;1.98;;
26540;SDS011;14206;50.202;10.948;2024-02-21T14:28:32;6.07;;;2.22;;
26540;SDS011;14206;50.202;10.948;2024-02-21T14:31:02;5.55;;;1.90;;
26540;SDS011;14206;50.202;10.948;2024-02-21T14:33:32;7.32;;;2.40;;
26540;SDS011;14206;50.202;10.948;2024-02-21T14:35:59;4.10;;;1.80;;
26540;SDS011;14206;50.202;10.948;2024-02-21T14:38:26;6.45;;;2.00;;